sensor_id;sensor_type;location;lat;lon;timestamp;temperature;humidity
52731;DHT22;38624;53.242;6.974;2023-12-20T00:01:37;5.00;99.90
52731;DHT22;38624;53.242;6.974;2023-12-20T00:04:03;5.00;99.90
52731;DHT22;38624;53.242;6.974;2023-12-20T00:06:29;4.70;99.90
52731;DHT22;38624;53.242;6.974;2023-12-20T00:08:55;4.80;99.90
52731;DHT22;38624;53.242;6.974;2023-12-20T00:11:21;5.70;99.90
52731;DHT22;38624;53.242;6.974;2023-12-20T00:13:47;4.60;99.90
52731;DHT22;38624;53.242;6.974;2023-12-20T00:16:12;4.60;99.90
52731;DHT22;38624;53.242;6.974;2023-12-20T00:18:38;4.80;99.90
52731;DHT22;38624;53.242;6.974;2023-12-20T00:21:04;4.30;99.90
52731;DHT22;38624;53.242;6.974;2023-12-20T00:23:30;4.30;99.90
52731;DHT22;38624;53.242;6.974;2023-12-20T00:25:55;4.40;99.90
52731;DHT22;38624;53.242;6.974;2023-12-20T00:28:21;4.20;99.90
52731;DHT22;38624;53.242;6.974;2023-12-20T00:30:47;4.90;99.90
52731;DHT22;38624;53.242;6.974;2023-12-20T00:33:13;5.40;99.90
52731;DHT22;38624;53.242;6.974;2023-12-20T00:35:39;4.30;99.90
52731;DHT22;38624;53.242;6.974;2023-12-20T00:38:05;4.40;99.90
52731;DHT22;38624;53.242;6.974;2023-12-20T00:40:32;4.40;99.90
52731;DHT22;38624;53.242;6.974;2023-12-20T00:42:58;5.90;99.90
52731;DHT22;38624;53.242;6.974;2023-12-20T00:45:24;4.50;99.90
52731;DHT22;38624;53.242;6.974;2023-12-20T00:47:50;5.00;99.90
52731;DHT22;38624;53.242;6.974;2023-12-20T00:50:16;5.90;99.90
52731;DHT22;38624;53.242;6.974;2023-12-20T00:52:41;5.00;99.90
52731;DHT22;38624;53.242;6.974;2023-12-20T00:55:07;5.60;99.90
52731;DHT22;38624;53.242;6.974;2023-12-20T00:57:33;4.50;99.90
52731;DHT22;38624;53.242;6.974;2023-12-20T00:59:59;4.50;99.90
52731;DHT22;38624;53.242;6.974;2023-12-20T01:02:25;4.60;99.90
52731;DHT22;38624;53.242;6.974;2023-12-20T01:04:51;4.70;99.90
52731;DHT22;38624;53.242;6.974;2023-12-20T01:07:16;4.70;99.90
52731;DHT22;38624;53.242;6.974;2023-12-20T01:09:42;6.10;99.90
52731;DHT22;38624;53.242;6.974;2023-12-20T01:12:08;4.90;99.90
52731;DHT22;38624;53.242;6.974;2023-12-20T01:14:34;5.70;99.90
52731;DHT22;38624;53.242;6.974;2023-12-20T01:16:59;6.10;99.90
52731;DHT22;38624;53.242;6.974;2023-12-20T01:19:25;5.60;99.90
52731;DHT22;38624;53.242;6.974;2023-12-20T01:21:53;5.20;99.90
52731;DHT22;38624;53.242;6.974;2023-12-20T01:24:19;6.00;99.90
52731;DHT22;38624;53.242;6.974;2023-12-20T01:26:44;4.90;99.90
52731;DHT22;38624;53.242;6.974;2023-12-20T01:29:10;5.80;99.90
52731;DHT22;38624;53.242;6.974;2023-12-20T01:31:36;6.00;99.90
52731;DHT22;38624;53.242;6.974;2023-12-20T01:34:02;4.90;99.90
52731;DHT22;38624;53.242;6.974;2023-12-20T01:36:30;5.70;99.90
52731;DHT22;38624;53.242;6.974;2023-12-20T01:38:55;4.80;99.90
52731;DHT22;38624;53.242;6.974;2023-12-20T01:41:21;4.70;99.90
52731;DHT22;38624;53.242;6.974;2023-12-20T01:43:47;5.70;99.90
52731;DHT22;38624;53.242;6.974;2023-12-20T01:48:39;4.80;99.90
52731;DHT22;38624;53.242;6.974;2023-12-20T01:51:05;4.80;99.90
52731;DHT22;38624;53.242;6.974;2023-12-20T01:53:31;4.90;99.90
52731;DHT22;38624;53.242;6.974;2023-12-20T01:55:58;5.50;99.90
52731;DHT22;38624;53.242;6.974;2023-12-20T01:58:25;6.00;99.90
52731;DHT22;38624;53.242;6.974;2023-12-20T02:00:51;6.60;99.90
52731;DHT22;38624;53.242;6.974;2023-12-20T02:03:18;5.30;99.90
52731;DHT22;38624;53.242;6.974;2023-12-20T02:05:44;6.70;99.90
52731;DHT22;38624;53.242;6.974;2023-12-20T02:08:11;5.40;99.90
52731;DHT22;38624;53.242;6.974;2023-12-20T02:10:37;6.00;99.90
52731;DHT22;38624;53.242;6.974;2023-12-20T02:13:03;6.10;99.90
52731;DHT22;38624;53.242;6.974;2023-12-20T02:15:30;6.70;99.90
52731;DHT22;38624;53.242;6.974;2023-12-20T02:17:56;5.50;99.90
52731;DHT22;38624;53.242;6.974;2023-12-20T02:20:22;5.30;99.90
52731;DHT22;38624;53.242;6.974;2023-12-20T02:22:47;5.40;99.90
52731;DHT22;38624;53.242;6.974;2023-12-20T02:25:13;5.90;99.90
52731;DHT22;38624;53.242;6.974;2023-12-20T02:27:39;5.40;99.90
52731;DHT22;38624;53.242;6.974;2023-12-20T02:30:06;5.40;99.90
52731;DHT22;38624;53.242;6.974;2023-12-20T02:32:32;5.50;99.90
52731;DHT22;38624;53.242;6.974;2023-12-20T02:34:58;5.60;99.90
52731;DHT22;38624;53.242;6.974;2023-12-20T02:37:24;5.60;99.90
52731;DHT22;38624;53.242;6.974;2023-12-20T02:39:50;5.70;99.90
52731;DHT22;38624;53.242;6.974;2023-12-20T02:42:15;6.20;99.90
52731;DHT22;38624;53.242;6.974;2023-12-20T02:47:07;5.60;99.90
52731;DHT22;38624;53.242;6.974;2023-12-20T02:49:33;5.60;99.90
52731;DHT22;38624;53.242;6.974;2023-12-20T02:51:59;6.90;99.90
52731;DHT22;38624;53.242;6.974;2023-12-20T02:54:24;6.10;99.90
52731;DHT22;38624;53.242;6.974;2023-12-20T02:56:50;5.80;99.90
52731;DHT22;38624;53.242;6.974;2023-12-20T02:59:16;5.70;99.90
52731;DHT22;38624;53.242;6.974;2023-12-20T03:01:43;4.90;99.90
52731;DHT22;38624;53.242;6.974;2023-12-20T03:06:36;5.60;99.90
52731;DHT22;38624;53.242;6.974;2023-12-20T03:09:01;6.20;99.90
52731;DHT22;38624;53.242;6.974;2023-12-20T03:13:54;5.60;99.90
52731;DHT22;38624;53.242;6.974;2023-12-20T03:16:20;5.70;99.90
52731;DHT22;38624;53.242;6.974;2023-12-20T03:18:46;6.90;99.90
52731;DHT22;38624;53.242;6.974;2023-12-20T03:21:11;6.50;99.90
52731;DHT22;38624;53.242;6.974;2023-12-20T03:23:37;5.70;99.90
52731;DHT22;38624;53.242;6.974;2023-12-20T03:26:03;5.90;99.90
52731;DHT22;38624;53.242;6.974;2023-12-20T03:28:32;5.60;99.90
52731;DHT22;38624;53.242;6.974;2023-12-20T03:30:57;5.60;99.90
52731;DHT22;38624;53.242;6.974;2023-12-20T03:33:23;5.40;99.90
52731;DHT22;38624;53.242;6.974;2023-12-20T03:35:49;5.30;99.90
52731;DHT22;38624;53.242;6.974;2023-12-20T03:38:14;6.20;99.90
52731;DHT22;38624;53.242;6.974;2023-12-20T03:40:40;5.80;99.90
52731;DHT22;38624;53.242;6.974;2023-12-20T03:43:06;5.20;99.90
52731;DHT22;38624;53.242;6.974;2023-12-20T03:45:32;5.40;99.90
52731;DHT22;38624;53.242;6.974;2023-12-20T03:47:57;5.40;99.90
52731;DHT22;38624;53.242;6.974;2023-12-20T03:50:23;5.40;99.90
52731;DHT22;38624;53.242;6.974;2023-12-20T03:52:49;4.70;99.90
52731;DHT22;38624;53.242;6.974;2023-12-20T03:55:15;6.00;99.90
52731;DHT22;38624;53.242;6.974;2023-12-20T03:57:41;6.70;99.90
52731;DHT22;38624;53.242;6.974;2023-12-20T04:00:10;6.00;99.90
52731;DHT22;38624;53.242;6.974;2023-12-20T04:02:37;5.80;99.90
52731;DHT22;38624;53.242;6.974;2023-12-20T04:05:03;6.20;99.90
52731;DHT22;38624;53.242;6.974;2023-12-20T04:07:29;5.70;99.90
52731;DHT22;38624;53.242;6.974;2023-12-20T04:09:55;6.30;99.90
52731;DHT22;38624;53.242;6.974;2023-12-20T04:12:20;5.70;99.90
52731;DHT22;38624;53.242;6.974;2023-12-20T04:14:46;6.30;99.90
52731;DHT22;38624;53.242;6.974;2023-12-20T04:17:12;6.40;99.90
52731;DHT22;38624;53.242;6.974;2023-12-20T04:19:38;5.60;99.90
52731;DHT22;38624;53.242;6.974;2023-12-20T04:22:04;6.80;99.90
52731;DHT22;38624;53.242;6.974;2023-12-20T04:24:29;5.70;99.90
52731;DHT22;38624;53.242;6.974;2023-12-20T04:26:55;5.70;99.90
52731;DHT22;38624;53.242;6.974;2023-12-20T04:29:21;6.40;99.90
52731;DHT22;38624;53.242;6.974;2023-12-20T04:31:46;5.60;99.90
52731;DHT22;38624;53.242;6.974;2023-12-20T04:34:12;5.60;99.90
52731;DHT22;38624;53.242;6.974;2023-12-20T04:36:38;6.40;99.90
52731;DHT22;38624;53.242;6.974;2023-12-20T04:39:04;5.70;99.90
52731;DHT22;38624;53.242;6.974;2023-12-20T04:41:30;5.70;99.90
52731;DHT22;38624;53.242;6.974;2023-12-20T04:43:55;5.80;99.90
52731;DHT22;38624;53.242;6.974;2023-12-20T04:46:21;7.00;99.90
52731;DHT22;38624;53.242;6.974;2023-12-20T04:48:47;7.10;99.90
52731;DHT22;38624;53.242;6.974;2023-12-20T04:51:13;6.70;99.90
52731;DHT22;38624;53.242;6.974;2023-12-20T04:53:38;5.70;99.90
52731;DHT22;38624;53.242;6.974;2023-12-20T04:56:04;6.50;99.90
52731;DHT22;38624;53.242;6.974;2023-12-20T04:58:30;5.60;99.90
52731;DHT22;38624;53.242;6.974;2023-12-20T05:00:55;6.00;99.90
52731;DHT22;38624;53.242;6.974;2023-12-20T05:03:21;5.80;99.90
52731;DHT22;38624;53.242;6.974;2023-12-20T05:05:47;5.80;99.90
52731;DHT22;38624;53.242;6.974;2023-12-20T05:08:13;5.90;99.90
52731;DHT22;38624;53.242;6.974;2023-12-20T05:10:39;6.00;99.90
52731;DHT22;38624;53.242;6.974;2023-12-20T05:13:05;6.80;99.90
52731;DHT22;38624;53.242;6.974;2023-12-20T05:15:31;6.40;99.90
52731;DHT22;38624;53.242;6.974;2023-12-20T05:17:57;6.50;99.90
52731;DHT22;38624;53.242;6.974;2023-12-20T05:20:22;7.00;99.90
52731;DHT22;38624;53.242;6.974;2023-12-20T05:22:48;6.40;99.90
52731;DHT22;38624;53.242;6.974;2023-12-20T05:25:14;6.40;99.90
52731;DHT22;38624;53.242;6.974;2023-12-20T05:27:40;6.40;99.90
52731;DHT22;38624;53.242;6.974;2023-12-20T05:30:06;6.50;99.90
52731;DHT22;38624;53.242;6.974;2023-12-20T05:32:32;6.40;99.90
52731;DHT22;38624;53.242;6.974;2023-12-20T05:34:58;7.20;99.90
52731;DHT22;38624;53.242;6.974;2023-12-20T05:37:23;6.40;99.90
52731;DHT22;38624;53.242;6.974;2023-12-20T05:39:49;6.60;99.90
52731;DHT22;38624;53.242;6.974;2023-12-20T05:42:15;6.40;99.90
52731;DHT22;38624;53.242;6.974;2023-12-20T05:44:40;7.90;99.90
52731;DHT22;38624;53.242;6.974;2023-12-20T05:47:06;6.50;99.90
52731;DHT22;38624;53.242;6.974;2023-12-20T05:51:58;6.50;99.90
52731;DHT22;38624;53.242;6.974;2023-12-20T05:54:24;6.60;99.90
52731;DHT22;38624;53.242;6.974;2023-12-20T05:56:49;6.40;99.90
52731;DHT22;38624;53.242;6.974;2023-12-20T05:59:16;6.40;99.90
52731;DHT22;38624;53.242;6.974;2023-12-20T06:01:41;7.40;99.90
52731;DHT22;38624;53.242;6.974;2023-12-20T06:04:07;6.40;99.90
52731;DHT22;38624;53.242;6.974;2023-12-20T06:06:33;6.50;99.90
52731;DHT22;38624;53.242;6.974;2023-12-20T06:08:59;6.50;99.90
52731;DHT22;38624;53.242;6.974;2023-12-20T06:11:25;6.50;99.90
52731;DHT22;38624;53.242;6.974;2023-12-20T06:13:51;6.70;99.90
52731;DHT22;38624;53.242;6.974;2023-12-20T06:16:18;6.90;99.90
52731;DHT22;38624;53.242;6.974;2023-12-20T06:18:44;7.70;99.90
52731;DHT22;38624;53.242;6.974;2023-12-20T06:21:10;6.80;99.90
52731;DHT22;38624;53.242;6.974;2023-12-20T06:23:38;6.80;99.90
52731;DHT22;38624;53.242;6.974;2023-12-20T06:26:04;6.70;99.90
52731;DHT22;38624;53.242;6.974;2023-12-20T06:28:30;6.60;99.90
52731;DHT22;38624;53.242;6.974;2023-12-20T06:30:56;6.70;99.90
52731;DHT22;38624;53.242;6.974;2023-12-20T06:33:23;7.40;99.90
52731;DHT22;38624;53.242;6.974;2023-12-20T06:35:49;6.80;99.90
52731;DHT22;38624;53.242;6.974;2023-12-20T06:38:15;6.80;99.90
52731;DHT22;38624;53.242;6.974;2023-12-20T06:40:41;6.80;99.90
52731;DHT22;38624;53.242;6.974;2023-12-20T06:43:08;6.90;99.90
52731;DHT22;38624;53.242;6.974;2023-12-20T06:45:33;6.80;99.90
52731;DHT22;38624;53.242;6.974;2023-12-20T06:48:00;6.90;99.90
52731;DHT22;38624;53.242;6.974;2023-12-20T06:50:25;6.90;99.90
52731;DHT22;38624;53.242;6.974;2023-12-20T06:52:51;7.00;99.90
52731;DHT22;38624;53.242;6.974;2023-12-20T06:55:18;6.90;99.90
52731;DHT22;38624;53.242;6.974;2023-12-20T06:57:43;7.70;99.90
52731;DHT22;38624;53.242;6.974;2023-12-20T07:00:11;6.80;99.90
52731;DHT22;38624;53.242;6.974;2023-12-20T07:02:37;6.70;99.90
52731;DHT22;38624;53.242;6.974;2023-12-20T07:05:03;6.80;99.90
52731;DHT22;38624;53.242;6.974;2023-12-20T07:07:31;6.70;99.90
52731;DHT22;38624;53.242;6.974;2023-12-20T07:09:56;6.70;99.90
52731;DHT22;38624;53.242;6.974;2023-12-20T07:12:22;6.70;99.90
52731;DHT22;38624;53.242;6.974;2023-12-20T07:14:48;6.80;99.90
52731;DHT22;38624;53.242;6.974;2023-12-20T07:17:14;6.60;99.90
52731;DHT22;38624;53.242;6.974;2023-12-20T07:19:43;6.60;99.90
52731;DHT22;38624;53.242;6.974;2023-12-20T07:22:09;6.30;99.90
52731;DHT22;38624;53.242;6.974;2023-12-20T07:24:34;6.70;99.90
52731;DHT22;38624;53.242;6.974;2023-12-20T07:27:01;7.40;99.90
52731;DHT22;38624;53.242;6.974;2023-12-20T07:29:27;6.70;99.90
52731;DHT22;38624;53.242;6.974;2023-12-20T07:31:53;6.90;99.90
52731;DHT22;38624;53.242;6.974;2023-12-20T07:34:20;7.10;99.90
52731;DHT22;38624;53.242;6.974;2023-12-20T07:36:46;6.90;99.90
52731;DHT22;38624;53.242;6.974;2023-12-20T07:39:12;7.20;99.90
52731;DHT22;38624;53.242;6.974;2023-12-20T07:41:38;8.10;99.90
52731;DHT22;38624;53.242;6.974;2023-12-20T07:44:04;7.30;99.90
52731;DHT22;38624;53.242;6.974;2023-12-20T07:46:36;7.30;99.90
52731;DHT22;38624;53.242;6.974;2023-12-20T07:49:02;7.30;99.90
52731;DHT22;38624;53.242;6.974;2023-12-20T07:51:27;7.40;99.90
52731;DHT22;38624;53.242;6.974;2023-12-20T07:53:53;7.40;99.90
52731;DHT22;38624;53.242;6.974;2023-12-20T07:56:19;7.50;99.90
52731;DHT22;38624;53.242;6.974;2023-12-20T07:58:46;7.60;99.90
52731;DHT22;38624;53.242;6.974;2023-12-20T08:01:13;7.90;99.90
52731;DHT22;38624;53.242;6.974;2023-12-20T08:03:39;7.70;99.90
52731;DHT22;38624;53.242;6.974;2023-12-20T08:06:05;8.00;99.90
52731;DHT22;38624;53.242;6.974;2023-12-20T08:08:30;7.70;99.90
52731;DHT22;38624;53.242;6.974;2023-12-20T08:10:56;7.70;99.90
52731;DHT22;38624;53.242;6.974;2023-12-20T08:13:24;7.60;99.90
52731;DHT22;38624;53.242;6.974;2023-12-20T08:15:52;7.80;99.90
52731;DHT22;38624;53.242;6.974;2023-12-20T08:18:18;7.80;99.90
52731;DHT22;38624;53.242;6.974;2023-12-20T08:20:43;7.70;99.90
52731;DHT22;38624;53.242;6.974;2023-12-20T08:23:09;7.80;99.90
52731;DHT22;38624;53.242;6.974;2023-12-20T08:25:35;7.80;99.90
52731;DHT22;38624;53.242;6.974;2023-12-20T08:28:02;7.70;99.90
52731;DHT22;38624;53.242;6.974;2023-12-20T08:30:28;7.90;99.90
52731;DHT22;38624;53.242;6.974;2023-12-20T08:32:55;7.10;99.90
52731;DHT22;38624;53.242;6.974;2023-12-20T08:35:21;8.00;99.90
52731;DHT22;38624;53.242;6.974;2023-12-20T08:37:46;8.00;99.90
52731;DHT22;38624;53.242;6.974;2023-12-20T08:40:12;7.60;99.90
52731;DHT22;38624;53.242;6.974;2023-12-20T08:42:39;7.30;99.90
52731;DHT22;38624;53.242;6.974;2023-12-20T08:45:05;7.30;99.90
52731;DHT22;38624;53.242;6.974;2023-12-20T08:47:30;6.30;99.90
52731;DHT22;38624;53.242;6.974;2023-12-20T08:49:59;6.60;99.90
52731;DHT22;38624;53.242;6.974;2023-12-20T08:52:25;6.00;99.90
52731;DHT22;38624;53.242;6.974;2023-12-20T08:54:52;4.90;99.90
52731;DHT22;38624;53.242;6.974;2023-12-20T08:57:22;5.70;99.90
52731;DHT22;38624;53.242;6.974;2023-12-20T08:59:49;4.70;99.90
52731;DHT22;38624;53.242;6.974;2023-12-20T09:02:16;5.50;99.90
52731;DHT22;38624;53.242;6.974;2023-12-20T09:04:42;4.90;99.90
52731;DHT22;38624;53.242;6.974;2023-12-20T09:07:24;4.90;99.90
52731;DHT22;38624;53.242;6.974;2023-12-20T09:09:51;4.90;99.90
52731;DHT22;38624;53.242;6.974;2023-12-20T09:12:20;5.80;99.90
52731;DHT22;38624;53.242;6.974;2023-12-20T09:14:46;5.00;99.90
52731;DHT22;38624;53.242;6.974;2023-12-20T09:17:12;5.50;99.90
52731;DHT22;38624;53.242;6.974;2023-12-20T09:19:38;5.00;99.90
52731;DHT22;38624;53.242;6.974;2023-12-20T09:22:05;5.10;99.90
52731;DHT22;38624;53.242;6.974;2023-12-20T09:24:31;5.10;99.90
52731;DHT22;38624;53.242;6.974;2023-12-20T09:26:57;5.70;99.90
52731;DHT22;38624;53.242;6.974;2023-12-20T09:29:23;6.20;99.90
52731;DHT22;38624;53.242;6.974;2023-12-20T09:31:50;4.80;99.90
52731;DHT22;38624;53.242;6.974;2023-12-20T09:34:16;5.10;99.90
52731;DHT22;38624;53.242;6.974;2023-12-20T09:36:42;4.80;99.90
52731;DHT22;38624;53.242;6.974;2023-12-20T09:39:15;4.90;99.90
52731;DHT22;38624;53.242;6.974;2023-12-20T09:41:45;4.80;99.90
52731;DHT22;38624;53.242;6.974;2023-12-20T09:44:18;5.30;99.90
52731;DHT22;38624;53.242;6.974;2023-12-20T09:46:47;5.00;99.90
52731;DHT22;38624;53.242;6.974;2023-12-20T09:49:18;4.80;99.90
52731;DHT22;38624;53.242;6.974;2023-12-20T09:51:46;5.30;99.90
52731;DHT22;38624;53.242;6.974;2023-12-20T09:54:16;4.60;99.90
52731;DHT22;38624;53.242;6.974;2023-12-20T09:56:43;4.60;99.90
52731;DHT22;38624;53.242;6.974;2023-12-20T09:59:09;5.10;99.90
52731;DHT22;38624;53.242;6.974;2023-12-20T10:01:35;4.70;99.90
52731;DHT22;38624;53.242;6.974;2023-12-20T10:04:07;5.40;99.90
52731;DHT22;38624;53.242;6.974;2023-12-20T10:06:44;4.90;99.90
52731;DHT22;38624;53.242;6.974;2023-12-20T10:09:11;6.40;99.90
52731;DHT22;38624;53.242;6.974;2023-12-20T10:11:38;4.90;99.90
52731;DHT22;38624;53.242;6.974;2023-12-20T10:14:04;5.50;99.90
52731;DHT22;38624;53.242;6.974;2023-12-20T10:16:31;5.50;99.90
52731;DHT22;38624;53.242;6.974;2023-12-20T10:18:58;5.80;99.90
52731;DHT22;38624;53.242;6.974;2023-12-20T10:21:24;5.10;99.90
52731;DHT22;38624;53.242;6.974;2023-12-20T10:23:53;6.50;99.90
52731;DHT22;38624;53.242;6.974;2023-12-20T10:26:23;5.40;99.90
52731;DHT22;38624;53.242;6.974;2023-12-20T10:28:59;5.10;99.90
52731;DHT22;38624;53.242;6.974;2023-12-20T10:31:32;5.60;99.90
52731;DHT22;38624;53.242;6.974;2023-12-20T10:33:59;5.80;99.90
52731;DHT22;38624;53.242;6.974;2023-12-20T10:36:30;6.00;99.90
52731;DHT22;38624;53.242;6.974;2023-12-20T10:38:57;5.30;99.90
52731;DHT22;38624;53.242;6.974;2023-12-20T10:41:28;5.20;99.90
52731;DHT22;38624;53.242;6.974;2023-12-20T10:44:04;5.70;99.90
52731;DHT22;38624;53.242;6.974;2023-12-20T10:46:34;5.10;99.90
52731;DHT22;38624;53.242;6.974;2023-12-20T10:49:02;5.60;99.90
52731;DHT22;38624;53.242;6.974;2023-12-20T10:51:27;5.10;99.90
52731;DHT22;38624;53.242;6.974;2023-12-20T10:53:55;5.20;99.90
52731;DHT22;38624;53.242;6.974;2023-12-20T10:56:22;5.20;99.90
52731;DHT22;38624;53.242;6.974;2023-12-20T10:58:50;5.30;99.90
52731;DHT22;38624;53.242;6.974;2023-12-20T11:01:17;5.90;99.90
52731;DHT22;38624;53.242;6.974;2023-12-20T11:03:53;5.30;99.90
52731;DHT22;38624;53.242;6.974;2023-12-20T11:06:36;5.40;99.90
52731;DHT22;38624;53.242;6.974;2023-12-20T11:09:23;5.50;99.90
52731;DHT22;38624;53.242;6.974;2023-12-20T11:12:09;5.50;99.90
52731;DHT22;38624;53.242;6.974;2023-12-20T11:14:47;5.60;99.90
52731;DHT22;38624;53.242;6.974;2023-12-20T11:17:14;5.60;99.90
52731;DHT22;38624;53.242;6.974;2023-12-20T11:22:29;6.30;99.90
52731;DHT22;38624;53.242;6.974;2023-12-20T11:25:07;5.70;99.90
52731;DHT22;38624;53.242;6.974;2023-12-20T11:27:40;5.60;99.90
52731;DHT22;38624;53.242;6.974;2023-12-20T11:30:06;5.60;99.90
52731;DHT22;38624;53.242;6.974;2023-12-20T11:32:34;5.70;99.90
52731;DHT22;38624;53.242;6.974;2023-12-20T11:35:17;5.70;99.90
52731;DHT22;38624;53.242;6.974;2023-12-20T11:37:43;5.70;99.90
52731;DHT22;38624;53.242;6.974;2023-12-20T11:40:13;6.30;99.90
52731;DHT22;38624;53.242;6.974;2023-12-20T11:42:41;5.80;99.90
52731;DHT22;38624;53.242;6.974;2023-12-20T11:45:15;5.80;99.90
52731;DHT22;38624;53.242;6.974;2023-12-20T11:47:47;5.80;99.90
52731;DHT22;38624;53.242;6.974;2023-12-20T11:50:16;5.70;99.90
52731;DHT22;38624;53.242;6.974;2023-12-20T11:52:41;5.60;99.90
52731;DHT22;38624;53.242;6.974;2023-12-20T11:55:07;5.60;99.90
52731;DHT22;38624;53.242;6.974;2023-12-20T11:57:33;5.80;99.90
52731;DHT22;38624;53.242;6.974;2023-12-20T11:59:59;6.30;99.90
52731;DHT22;38624;53.242;6.974;2023-12-20T12:02:25;6.00;99.90
52731;DHT22;38624;53.242;6.974;2023-12-20T12:04:51;6.10;99.90
52731;DHT22;38624;53.242;6.974;2023-12-20T12:07:17;7.30;99.90
52731;DHT22;38624;53.242;6.974;2023-12-20T12:09:43;6.20;99.90
52731;DHT22;38624;53.242;6.974;2023-12-20T12:12:10;6.10;99.90
52731;DHT22;38624;53.242;6.974;2023-12-20T12:14:38;7.00;99.90
52731;DHT22;38624;53.242;6.974;2023-12-20T12:17:13;6.20;99.90
52731;DHT22;38624;53.242;6.974;2023-12-20T12:19:40;6.70;99.90
52731;DHT22;38624;53.242;6.974;2023-12-20T12:22:14;6.20;99.90
52731;DHT22;38624;53.242;6.974;2023-12-20T12:24:41;6.10;99.90
52731;DHT22;38624;53.242;6.974;2023-12-20T12:27:07;6.20;99.90
52731;DHT22;38624;53.242;6.974;2023-12-20T12:29:34;6.20;99.90
52731;DHT22;38624;53.242;6.974;2023-12-20T12:32:01;6.20;99.90
52731;DHT22;38624;53.242;6.974;2023-12-20T12:34:29;6.10;99.90
52731;DHT22;38624;53.242;6.974;2023-12-20T12:36:56;6.90;99.90
52731;DHT22;38624;53.242;6.974;2023-12-20T12:39:23;7.10;99.90
52731;DHT22;38624;53.242;6.974;2023-12-20T12:41:51;6.20;99.90
52731;DHT22;38624;53.242;6.974;2023-12-20T12:44:17;6.20;99.90
52731;DHT22;38624;53.242;6.974;2023-12-20T12:46:46;6.30;99.90
52731;DHT22;38624;53.242;6.974;2023-12-20T12:49:12;6.30;99.90
52731;DHT22;38624;53.242;6.974;2023-12-20T12:51:38;6.40;99.90
52731;DHT22;38624;53.242;6.974;2023-12-20T12:54:04;6.30;99.90
52731;DHT22;38624;53.242;6.974;2023-12-20T12:56:30;6.30;99.90
52731;DHT22;38624;53.242;6.974;2023-12-20T12:58:56;6.30;99.90
52731;DHT22;38624;53.242;6.974;2023-12-20T13:01:22;6.40;99.90
52731;DHT22;38624;53.242;6.974;2023-12-20T13:03:48;6.40;99.90
52731;DHT22;38624;53.242;6.974;2023-12-20T13:06:14;6.40;99.90
52731;DHT22;38624;53.242;6.974;2023-12-20T13:08:40;6.50;99.90
52731;DHT22;38624;53.242;6.974;2023-12-20T13:11:06;6.40;99.90
52731;DHT22;38624;53.242;6.974;2023-12-20T13:13:31;6.40;99.90
52731;DHT22;38624;53.242;6.974;2023-12-20T13:15:57;6.50;99.90
52731;DHT22;38624;53.242;6.974;2023-12-20T13:18:23;6.50;99.90
52731;DHT22;38624;53.242;6.974;2023-12-20T13:20:49;7.10;99.90
52731;DHT22;38624;53.242;6.974;2023-12-20T13:23:15;6.60;99.90
52731;DHT22;38624;53.242;6.974;2023-12-20T13:25:51;6.80;99.90
52731;DHT22;38624;53.242;6.974;2023-12-20T13:28:17;6.70;99.90
52731;DHT22;38624;53.242;6.974;2023-12-20T13:30:46;6.70;99.90
52731;DHT22;38624;53.242;6.974;2023-12-20T13:33:11;6.80;99.90
52731;DHT22;38624;53.242;6.974;2023-12-20T13:35:37;6.80;99.90
52731;DHT22;38624;53.242;6.974;2023-12-20T13:38:03;6.80;99.90
52731;DHT22;38624;53.242;6.974;2023-12-20T13:40:29;6.70;99.90
52731;DHT22;38624;53.242;6.974;2023-12-20T13:42:55;6.70;99.90
52731;DHT22;38624;53.242;6.974;2023-12-20T13:45:20;6.70;99.90
52731;DHT22;38624;53.242;6.974;2023-12-20T13:47:46;7.40;99.90
52731;DHT22;38624;53.242;6.974;2023-12-20T13:50:12;6.50;99.90
52731;DHT22;38624;53.242;6.974;2023-12-20T13:52:38;7.00;99.90
52731;DHT22;38624;53.242;6.974;2023-12-20T13:55:04;6.40;99.90
52731;DHT22;38624;53.242;6.974;2023-12-20T13:57:33;6.30;99.90
52731;DHT22;38624;53.242;6.974;2023-12-20T13:59:59;6.30;99.90
52731;DHT22;38624;53.242;6.974;2023-12-20T14:02:25;6.40;99.90
52731;DHT22;38624;53.242;6.974;2023-12-20T14:04:52;6.30;99.90
52731;DHT22;38624;53.242;6.974;2023-12-20T14:07:18;6.30;99.90
52731;DHT22;38624;53.242;6.974;2023-12-20T14:09:44;6.40;99.90
52731;DHT22;38624;53.242;6.974;2023-12-20T14:12:14;6.50;99.90
52731;DHT22;38624;53.242;6.974;2023-12-20T14:14:40;6.40;99.90
52731;DHT22;38624;53.242;6.974;2023-12-20T14:17:06;6.50;99.90
52731;DHT22;38624;53.242;6.974;2023-12-20T14:19:34;6.50;99.90
52731;DHT22;38624;53.242;6.974;2023-12-20T14:22:00;6.50;99.90
52731;DHT22;38624;53.242;6.974;2023-12-20T14:24:27;6.60;99.90
52731;DHT22;38624;53.242;6.974;2023-12-20T14:26:53;7.20;99.90
52731;DHT22;38624;53.242;6.974;2023-12-20T14:29:19;6.80;99.90
52731;DHT22;38624;53.242;6.974;2023-12-20T14:31:48;6.50;99.90
52731;DHT22;38624;53.242;6.974;2023-12-20T14:34:15;6.50;99.90
52731;DHT22;38624;53.242;6.974;2023-12-20T14:36:41;6.40;99.90
52731;DHT22;38624;53.242;6.974;2023-12-20T14:39:07;6.80;99.90
52731;DHT22;38624;53.242;6.974;2023-12-20T14:41:34;6.80;99.90
52731;DHT22;38624;53.242;6.974;2023-12-20T14:44:00;6.20;99.90
52731;DHT22;38624;53.242;6.974;2023-12-20T14:46:26;6.20;99.90
52731;DHT22;38624;53.242;6.974;2023-12-20T14:48:51;6.20;99.90
52731;DHT22;38624;53.242;6.974;2023-12-20T14:51:17;6.40;99.90
52731;DHT22;38624;53.242;6.974;2023-12-20T14:53:43;6.10;99.90
52731;DHT22;38624;53.242;6.974;2023-12-20T14:56:08;6.80;99.90
52731;DHT22;38624;53.242;6.974;2023-12-20T14:58:34;5.90;99.90
52731;DHT22;38624;53.242;6.974;2023-12-20T15:01:01;5.80;99.90
52731;DHT22;38624;53.242;6.974;2023-12-20T15:03:27;5.80;99.90
52731;DHT22;38624;53.242;6.974;2023-12-20T15:05:54;5.70;99.90
52731;DHT22;38624;53.242;6.974;2023-12-20T15:08:20;5.60;99.90
52731;DHT22;38624;53.242;6.974;2023-12-20T15:10:46;5.60;99.90
52731;DHT22;38624;53.242;6.974;2023-12-20T15:13:12;5.70;99.90
52731;DHT22;38624;53.242;6.974;2023-12-20T15:15:38;5.00;99.90
52731;DHT22;38624;53.242;6.974;2023-12-20T15:18:04;5.90;99.90
52731;DHT22;38624;53.242;6.974;2023-12-20T15:20:29;5.50;99.90
52731;DHT22;38624;53.242;6.974;2023-12-20T15:22:55;5.60;99.90
52731;DHT22;38624;53.242;6.974;2023-12-20T15:25:24;5.60;99.90
52731;DHT22;38624;53.242;6.974;2023-12-20T15:27:50;5.60;99.90
52731;DHT22;38624;53.242;6.974;2023-12-20T15:30:21;5.60;99.90
52731;DHT22;38624;53.242;6.974;2023-12-20T15:32:49;5.60;99.90
52731;DHT22;38624;53.242;6.974;2023-12-20T15:35:15;6.00;99.90
52731;DHT22;38624;53.242;6.974;2023-12-20T15:37:41;5.50;99.90
52731;DHT22;38624;53.242;6.974;2023-12-20T15:40:10;5.60;99.90
52731;DHT22;38624;53.242;6.974;2023-12-20T15:42:37;5.60;99.90
52731;DHT22;38624;53.242;6.974;2023-12-20T15:45:04;5.60;99.90
52731;DHT22;38624;53.242;6.974;2023-12-20T15:47:29;5.60;99.90
52731;DHT22;38624;53.242;6.974;2023-12-20T15:49:55;5.50;99.90
52731;DHT22;38624;53.242;6.974;2023-12-20T15:52:21;5.40;99.90
52731;DHT22;38624;53.242;6.974;2023-12-20T15:54:47;5.50;99.90
52731;DHT22;38624;53.242;6.974;2023-12-20T15:57:13;5.50;99.90